Time;durP1;ratioP1;P1;durP2;ratioP2;P2;SDS_P1;SDS_P2;PMS_P1;PMS_P2;Temp;Humidity;BMP_temperature;BMP_pressure;BME280_temperature;BME280_humidity;BME280_pressure;Samples;Min_cycle;Max_cycle;Signal;HPM_P1;HPM_P2
2021/08/22 00:00:44;;;;;;;18.20;14.70;;;;;;;20.19;60.98;100751.19;117366;1183;21855;-67
2021/08/22 00:03:13;;;;;;;19.80;15.40;;;;;;;20.19;61.02;100747.45;117416;1185;22320;-62
2021/08/22 00:05:42;;;;;;;18.30;14.40;;;;;;;20.18;61.11;100747.15;117381;1182;23446;-66
2021/08/22 00:08:11;;;;;;;17.70;15.10;;;;;;;20.20;61.12;100749.89;117467;1182;21851;-62
2021/08/22 00:10:39;;;;;;;19.30;15.70;;;;;;;20.13;61.28;100756.44;117451;1185;22728;-68
2021/08/22 00:13:08;;;;;;;18.90;16.10;;;;;;;20.11;61.35;100754.05;117385;1184;22520;-64
2021/08/22 00:15:36;;;;;;;22.90;17.10;;;;;;;20.16;61.25;100750.43;117391;1182;21855;-62
2021/08/22 00:18:04;;;;;;;20.40;18.00;;;;;;;20.20;61.21;100751.13;117450;1183;21855;-68
2021/08/22 00:20:32;;;;;;;24.70;18.30;;;;;;;20.22;61.25;100748.56;117181;1188;21855;-67
2021/08/22 00:23:01;;;;;;;22.40;17.90;;;;;;;20.16;61.42;100747.56;117321;1185;21858;-62
2021/08/22 00:25:32;;;;;;;23.70;18.90;;;;;;;20.22;61.37;100748.40;117363;1186;21854;-68
2021/08/22 00:28:00;;;;;;;26.80;19.90;;;;;;;20.19;61.52;100753.33;117449;1185;21856;-67
2021/08/22 00:30:30;;;;;;;25.50;21.40;;;;;;;20.17;61.56;100750.36;117368;1185;21902;-67
2021/08/22 00:32:58;;;;;;;29.20;21.80;;;;;;;20.17;61.52;100747.13;117365;1185;21858;-62
2021/08/22 00:35:26;;;;;;;26.40;20.90;;;;;;;20.24;61.36;100742.59;117436;1184;21857;-63
2021/08/22 00:37:56;;;;;;;28.50;23.00;;;;;;;20.24;61.33;100742.95;117453;1185;21854;-68
2021/08/22 00:40:24;;;;;;;29.90;22.60;;;;;;;20.21;61.46;100746.26;117466;1185;22064;-68
2021/08/22 00:42:55;;;;;;;28.00;22.60;;;;;;;20.24;61.37;100742.95;117447;1182;21845;-63
2021/08/22 00:45:23;;;;;;;28.50;23.10;;;;;;;20.29;61.26;100741.27;117391;1182;24203;-68
2021/08/22 00:47:59;;;;;;;32.30;24.90;;;;;;;20.30;61.24;100741.23;117528;1182;21863;-63
2021/08/22 00:50:27;;;;;;;31.70;23.90;;;;;;;20.30;61.21;100740.88;117305;1185;21881;-68
2021/08/22 00:52:55;;;;;;;39.30;26.20;;;;;;;20.30;61.20;100737.64;117403;1186;22320;-68
2021/08/22 00:55:23;;;;;;;35.60;25.60;;;;;;;20.31;61.28;100737.63;117412;1183;23600;-63
2021/08/22 00:57:52;;;;;;;32.50;24.90;;;;;;;20.30;61.33;100736.77;117343;1185;23350;-69
2021/08/22 01:00:20;;;;;;;31.10;25.00;;;;;;;20.30;61.29;100738.55;117245;1185;21851;-69
2021/08/22 01:02:58;;;;;;;29.10;23.80;;;;;;;20.31;61.26;100739.05;117447;1186;21935;-64
2021/08/22 01:05:29;;;;;;;29.00;23.20;;;;;;;20.33;61.20;100738.77;117424;1185;21851;-64
2021/08/22 01:08:09;;;;;;;29.20;24.00;;;;;;;20.34;61.18;100740.48;117451;1186;21858;-63
2021/08/22 01:10:38;;;;;;;33.30;24.00;;;;;;;20.32;61.18;100742.90;117368;1183;21855;-63
2021/08/22 01:13:08;;;;;;;28.80;23.20;;;;;;;20.31;61.11;100740.10;117449;1186;23523;-63
2021/08/22 01:15:50;;;;;;;32.60;24.70;;;;;;;20.32;61.13;100739.71;117387;1186;23491;-65
2021/08/22 01:18:35;;;;;;;33.30;25.10;;;;;;;20.34;61.03;100740.11;117401;1180;21845;-68
2021/08/22 01:21:13;;;;;;;30.30;24.90;;;;;;;20.36;61.06;100743.64;117431;1183;21854;-69
2021/08/22 01:23:51;;;;;;;32.60;24.40;;;;;;;20.36;60.94;100744.32;117407;1185;21881;-69
2021/08/22 01:26:23;;;;;;;31.40;23.80;;;;;;;20.37;60.87;100747.50;117353;1182;21858;-63
2021/08/22 01:28:52;;;;;;;31.80;24.60;;;;;;;20.42;60.71;100746.90;117428;1185;21918;-64
2021/08/22 01:31:26;;;;;;;32.30;24.60;;;;;;;20.48;60.51;100745.89;117380;1183;21864;-68
2021/08/22 01:33:54;;;;;;;29.00;22.10;;;;;;;20.49;60.39;100744.96;117373;1185;21917;-68
2021/08/22 01:36:23;;;;;;;30.50;22.60;;;;;;;20.44;60.48;100741.48;117446;1185;21855;-69
2021/08/22 01:38:53;;;;;;;30.20;22.30;;;;;;;20.39;60.60;100740.98;117477;1185;21868;-64
2021/08/22 01:41:23;;;;;;;25.80;21.00;;;;;;;20.37;60.61;100737.54;117157;1185;21845;-68
2021/08/22 01:43:53;;;;;;;25.40;21.20;;;;;;;20.36;60.57;100744.15;117397;1185;22808;-68
2021/08/22 01:46:36;;;;;;;25.20;20.40;;;;;;;20.35;60.59;100746.01;117365;1186;22879;-63
2021/08/22 01:49:09;;;;;;;24.30;19.30;;;;;;;20.29;60.76;100741.45;117475;1185;22908;-67
2021/08/22 01:51:37;;;;;;;25.40;20.10;;;;;;;20.35;60.49;100746.00;117392;1185;22096;-63
2021/08/22 01:54:07;;;;;;;24.20;18.80;;;;;;;20.35;60.43;100745.95;117310;1185;21855;-69
2021/08/22 01:56:35;;;;;;;25.40;19.40;;;;;;;20.27;60.63;100748.33;117355;1182;23625;-63
2021/08/22 01:59:05;;;;;;;22.30;18.60;;;;;;;20.26;60.64;100747.84;117357;1182;21845;-68
2021/08/22 02:01:36;;;;;;;26.50;19.10;;;;;;;20.20;60.81;100750.39;117349;1186;21863;-68
2021/08/22 02:04:15;;;;;;;22.40;17.80;;;;;;;20.18;60.81;100752.32;117318;1185;21854;-63
2021/08/22 02:06:53;;;;;;;22.20;17.90;;;;;;;20.17;60.86;100748.08;117229;1185;23561;-67
2021/08/22 02:09:41;;;;;;;19.30;16.30;;;;;;;20.18;60.85;100746.05;117327;1179;23070;-69
2021/08/22 02:12:13;;;;;;;22.70;16.70;;;;;;;20.18;60.78;100748.20;117350;1185;21855;-64
2021/08/22 02:14:48;;;;;;;19.90;16.10;;;;;;;20.14;60.87;100751.74;117273;1182;21858;-63
2021/08/22 02:17:16;;;;;;;20.00;15.60;;;;;;;20.11;60.93;100755.84;117319;1182;21920;-68
2021/08/22 02:19:44;;;;;;;21.10;15.90;;;;;;;20.10;60.96;100756.40;117149;1183;21848;-63
2021/08/22 02:22:12;;;;;;;19.90;14.90;;;;;;;20.09;61.04;100756.99;117105;1188;21865;-62
2021/08/22 02:24:40;;;;;;;20.30;16.50;;;;;;;20.09;61.03;100756.25;117328;1183;21858;-68
2021/08/22 02:27:09;;;;;;;18.80;16.30;;;;;;;20.06;61.10;100756.95;117203;1187;21858;-68
2021/08/22 02:29:49;;;;;;;20.80;15.90;;;;;;;19.98;61.30;100757.11;117351;1185;21893;-63
2021/08/22 02:32:18;;;;;;;21.70;16.60;;;;;;;19.97;61.36;100755.59;117335;1186;21859;-70
2021/08/22 02:34:46;;;;;;;20.40;16.10;;;;;;;19.95;61.44;100754.61;117392;1185;23979;-68
2021/08/22 02:37:14;;;;;;;20.20;16.00;;;;;;;19.93;61.47;100756.66;117349;1182;21871;-67
2021/08/22 02:39:43;;;;;;;19.20;15.30;;;;;;;19.90;61.67;100760.31;117305;1186;21985;-68
2021/08/22 02:42:12;;;;;;;20.10;15.40;;;;;;;19.84;61.89;100761.49;117460;1185;21862;-70
2021/08/22 02:44:40;;;;;;;20.80;15.80;;;;;;;19.79;62.10;100756.71;117393;1185;21858;-70
2021/08/22 02:47:09;;;;;;;20.90;15.20;;;;;;;19.80;62.14;100756.67;117388;1182;21899;-69
2021/08/22 02:49:37;;;;;;;20.50;16.00;;;;;;;19.81;62.21;100763.02;117457;1183;22846;-69
2021/08/22 02:52:06;;;;;;;19.50;15.40;;;;;;;19.81;62.27;100764.30;117417;1185;22917;-64
2021/08/22 02:54:36;;;;;;;21.50;15.50;;;;;;;19.79;62.40;100764.37;117420;1186;23100;-70
2021/08/22 02:57:04;;;;;;;20.50;14.30;;;;;;;19.77;62.47;100767.11;117389;1186;22909;-68
2021/08/22 02:59:33;;;;;;;21.70;14.10;;;;;;;19.74;62.56;100764.23;117397;1184;21882;-63
2021/08/22 03:02:01;;;;;;;17.30;14.30;;;;;;;19.71;62.70;100764.52;117442;1182;21870;-63
2021/08/22 03:04:29;;;;;;;19.00;14.80;;;;;;;19.71;62.77;100764.00;117378;1182;23557;-69
2021/08/22 03:07:09;;;;;;;17.00;14.10;;;;;;;19.79;62.65;100762.95;117300;1183;21866;-63
2021/08/22 03:09:38;;;;;;;19.20;14.70;;;;;;;19.81;62.63;100764.64;117459;1185;21855;-65
2021/08/22 03:12:07;;;;;;;16.80;14.30;;;;;;;19.81;62.67;100761.44;117406;1186;21847;-64
2021/08/22 03:14:47;;;;;;;20.10;14.30;;;;;;;19.83;62.56;100764.00;117360;1182;21870;-69
2021/08/22 03:17:15;;;;;;;18.20;13.80;;;;;;;19.88;62.52;100765.91;117317;1182;21938;-64
2021/08/22 03:19:51;;;;;;;18.50;13.70;;;;;;;19.87;62.71;100766.30;117367;1186;21941;-64
2021/08/22 03:22:23;;;;;;;;;;;;;;;19.87;62.85;100768.66;117439;1185;21831;-69
2021/08/22 03:24:52;;;;;;;16.00;13.60;;;;;;;19.86;62.96;100770.30;117211;1185;23101;-69
2021/08/22 03:27:21;;;;;;;16.80;13.20;;;;;;;19.87;63.00;100772.57;117372;1183;21857;-69
2021/08/22 03:29:49;;;;;;;16.80;13.50;;;;;;;19.88;63.00;100768.23;117370;1180;23455;-70
2021/08/22 03:32:18;;;;;;;21.10;14.50;;;;;;;19.89;63.06;100765.38;117422;1186;21853;-64
2021/08/22 03:34:46;;;;;;;18.10;14.40;;;;;;;19.91;63.34;100766.54;117400;1185;21848;-63
2021/08/22 03:37:15;;;;;;;18.60;13.90;;;;;;;19.93;63.28;100769.11;117468;1183;22905;-70
2021/08/22 03:39:43;;;;;;;17.60;13.50;;;;;;;19.97;63.30;100769.48;117541;1185;22906;-69
2021/08/22 03:42:11;;;;;;;16.70;13.10;;;;;;;19.97;63.61;100768.73;117413;1185;21845;-64
2021/08/22 03:44:39;;;;;;;20.70;15.00;;;;;;;19.99;63.52;100769.89;117384;1186;22153;-64
2021/08/22 03:47:07;;;;;;;18.20;13.60;;;;;;;20.11;63.50;100772.00;117452;1183;21855;-69
2021/08/22 03:49:36;;;;;;;23.40;13.60;;;;;;;20.16;63.43;100776.26;117483;1186;23699;-63
2021/08/22 03:52:05;;;;;;;22.80;13.40;;;;;;;20.18;63.59;100772.80;117312;1185;21855;-65
2021/08/22 03:54:33;;;;;;;19.10;13.40;;;;;;;20.22;63.62;100773.84;117450;1185;21858;-69
2021/08/22 03:57:01;;;;;;;16.70;13.20;;;;;;;20.26;63.68;100770.29;117456;1184;21848;-70
2021/08/22 03:59:29;;;;;;;16.70;13.30;;;;;;;20.32;63.78;100769.27;117331;1185;21855;-67
2021/08/22 04:01:58;;;;;;;14.00;12.50;;;;;;;20.35;63.92;100767.70;117413;1185;22313;-65
2021/08/22 04:04:26;;;;;;;16.30;12.70;;;;;;;20.39;64.05;100771.82;117374;1185;21892;-65
2021/08/22 04:07:06;;;;;;;15.30;13.00;;;;;;;20.45;64.07;100775.27;117404;1185;21912;-64
2021/08/22 04:09:35;;;;;;;14.80;12.80;;;;;;;20.50;64.15;100771.11;117327;1183;21855;-65
2021/08/22 04:12:03;;;;;;;17.00;12.50;;;;;;;20.55;64.25;100775.01;117294;1185;21842;-70
2021/08/22 04:14:32;;;;;;;14.30;12.50;;;;;;;20.59;64.34;100775.84;117461;1185;23551;-69
2021/08/22 04:17:00;;;;;;;15.90;12.70;;;;;;;20.67;64.21;100778.48;117521;1185;21868;-66
2021/08/22 04:19:35;;;;;;;19.70;12.70;;;;;;;20.75;64.19;100780.11;117377;1183;21940;-68
2021/08/22 04:22:04;;;;;;;15.90;12.50;;;;;;;20.82;64.10;100779.80;117333;1183;21851;-68
2021/08/22 04:24:32;;;;;;;14.30;12.70;;;;;;;20.87;64.28;100781.00;117423;1186;21854;-66
2021/08/22 04:27:02;;;;;;;15.50;12.70;;;;;;;20.94;64.19;100785.25;117454;1186;21885;-69
2021/08/22 04:29:30;;;;;;;13.60;11.50;;;;;;;21.02;64.06;100781.27;117416;1183;22927;-67
2021/08/22 04:31:58;;;;;;;24.80;11.40;;;;;;;21.15;63.25;100781.36;117468;1185;23433;-63
2021/08/22 04:34:27;;;;;;;17.70;12.10;;;;;;;21.36;62.91;100781.91;117499;1183;21854;-63
2021/08/22 04:36:55;;;;;;;15.40;12.00;;;;;;;21.57;62.84;100784.08;117411;1185;22103;-70
2021/08/22 04:39:23;;;;;;;16.80;11.30;;;;;;;21.70;62.85;100782.38;117422;1185;23592;-69
2021/08/22 04:41:52;;;;;;;14.40;12.00;;;;;;;21.82;62.64;100785.50;117380;1183;21858;-68
2021/08/22 04:44:20;;;;;;;17.10;12.30;;;;;;;21.86;62.53;100787.75;117387;1185;21863;-67
2021/08/22 04:46:48;;;;;;;16.40;12.30;;;;;;;21.83;62.65;100792.03;117402;1185;21854;-66
2021/08/22 04:49:16;;;;;;;14.50;12.20;;;;;;;21.87;62.61;100793.09;117518;1185;21885;-67
2021/08/22 04:51:46;;;;;;;13.30;11.30;;;;;;;21.90;62.56;100794.00;117399;1185;21858;-66
2021/08/22 04:54:18;;;;;;;13.90;12.10;;;;;;;21.95;62.54;100798.37;117510;1185;23432;-65
2021/08/22 04:56:48;;;;;;;13.80;12.20;;;;;;;22.03;62.46;100798.34;117410;1186;21864;-66
2021/08/22 04:59:16;;;;;;;14.60;11.70;;;;;;;22.10;62.54;100799.90;119484;1184;21786;-68
2021/08/22 05:01:44;;;;;;;14.70;11.70;;;;;;;22.18;62.53;100801.46;119070;1183;22715;-67
2021/08/22 05:04:13;;;;;;;16.60;12.70;;;;;;;22.29;61.98;100800.45;117433;1186;21838;-65
2021/08/22 05:06:41;;;;;;;17.50;11.30;;;;;;;22.36;61.87;100800.83;117442;1182;21895;-67
2021/08/22 05:09:09;;;;;;;15.20;12.30;;;;;;;22.45;61.81;100803.40;117430;1182;21851;-68
2021/08/22 05:11:58;;;;;;;14.80;11.60;;;;;;;22.55;61.79;100803.40;117397;1182;21855;-65
2021/08/22 05:14:30;;;;;;;14.50;11.40;;;;;;;22.65;61.74;100804.98;117539;1185;21854;-67
2021/08/22 05:16:59;;;;;;;21.60;16.10;;;;;;;22.82;61.48;100803.28;117421;1185;22945;-65
2021/08/22 05:19:27;;;;;;;26.90;21.30;;;;;;;22.98;61.30;100802.40;117439;1182;23534;-65
2021/08/22 05:21:55;;;;;;;20.20;17.30;;;;;;;23.14;60.80;100799.48;117406;1186;21857;-69
2021/08/22 05:24:24;;;;;;;18.30;14.20;;;;;;;23.26;60.46;100802.96;117435;1185;21854;-66
2021/08/22 05:27:12;;;;;;;16.90;13.60;;;;;;;23.35;60.32;100807.29;117386;1185;22926;-68
2021/08/22 05:29:40;;;;;;;16.50;13.40;;;;;;;23.47;60.23;100809.23;117558;1182;21853;-66
2021/08/22 05:32:09;;;;;;;16.40;12.90;;;;;;;23.62;60.03;100812.10;117451;1185;22104;-68
2021/08/22 05:34:37;;;;;;;16.10;12.60;;;;;;;23.77;59.81;100811.02;117370;1188;21862;-63
2021/08/22 05:37:05;;;;;;;15.80;12.10;;;;;;;23.91;59.37;100810.91;117394;1182;21857;-67
2021/08/22 05:39:33;;;;;;;14.50;12.90;;;;;;;24.07;58.91;100812.81;117387;1185;21855;-68
2021/08/22 05:42:03;;;;;;;19.20;12.80;;;;;;;24.22;58.74;100809.72;117366;1184;21866;-67
2021/08/22 05:44:32;;;;;;;;;;;;;;;24.30;58.36;100811.40;117405;1182;21839;-67
2021/08/22 05:47:00;;;;;;;15.20;11.80;;;;;;;24.38;58.26;100809.23;117409;1185;21864;-67
2021/08/22 05:49:29;;;;;;;16.20;12.80;;;;;;;24.54;58.00;100810.41;117355;1185;21848;-72
2021/08/22 05:51:57;;;;;;;15.20;10.70;;;;;;;24.71;57.25;100809.30;117425;1184;22310;-64
2021/08/22 05:54:25;;;;;;;16.10;11.80;;;;;;;24.79;57.11;100808.80;117441;1186;22923;-67
2021/08/22 05:56:53;;;;;;;18.30;11.90;;;;;;;24.91;56.85;100806.80;117410;1182;23465;-66
2021/08/22 05:59:22;;;;;;;15.20;13.20;;;;;;;25.10;56.43;100806.95;117437;1184;21843;-66
2021/08/22 06:01:51;;;;;;;15.90;11.90;;;;;;;25.38;56.32;100805.98;117397;1185;23455;-67
2021/08/22 06:04:19;;;;;;;15.30;11.80;;;;;;;25.63;56.04;100804.36;117466;1185;22883;-67
2021/08/22 06:06:47;;;;;;;19.40;12.60;;;;;;;25.81;55.63;100805.77;117386;1182;23538;-64
2021/08/22 06:09:15;;;;;;;15.30;11.40;;;;;;;26.04;54.97;100801.12;117417;1180;22908;-68
2021/08/22 06:11:44;;;;;;;11.90;10.00;;;;;;;26.26;54.23;100800.12;117420;1185;21854;-69
2021/08/22 06:14:13;;;;;;;13.30;10.00;;;;;;;26.41;53.64;100799.05;117336;1186;23082;-70
2021/08/22 06:16:42;;;;;;;15.00;9.40;;;;;;;26.56;53.24;100799.58;117326;1185;22884;-67
2021/08/22 06:19:10;;;;;;;16.00;10.10;;;;;;;26.72;52.67;100799.53;117409;1185;23442;-69
2021/08/22 06:21:38;;;;;;;15.40;9.30;;;;;;;26.56;52.75;100798.50;117367;1176;21858;-66
2021/08/22 06:24:08;;;;;;;10.00;8.60;;;;;;;26.62;52.46;100797.13;117364;1185;21852;-69
2021/08/22 06:26:36;;;;;;;10.80;8.70;;;;;;;26.99;51.89;100795.42;117385;1185;21860;-67
2021/08/22 06:29:04;;;;;;;11.80;9.00;;;;;;;27.39;50.96;100794.71;117367;1182;23427;-67
2021/08/22 06:31:33;;;;;;;11.60;8.70;;;;;;;27.62;50.28;100797.16;117446;1182;21926;-68
2021/08/22 06:34:02;;;;;;;14.60;9.20;;;;;;;27.64;50.14;100797.12;117354;1186;22811;-65
2021/08/22 06:36:30;;;;;;;18.90;8.90;;;;;;;27.74;49.78;100802.01;117422;1185;21848;-65
2021/08/22 06:38:59;;;;;;;12.80;8.50;;;;;;;27.98;49.49;100801.91;117398;1185;21887;-65
2021/08/22 06:41:28;;;;;;;11.10;8.80;;;;;;;28.18;49.19;100802.90;117392;1185;22997;-64
2021/08/22 06:43:56;;;;;;;9.10;7.90;;;;;;;28.43;48.80;100804.51;117353;1185;21865;-67
2021/08/22 06:46:25;;;;;;;14.10;8.90;;;;;;;28.66;48.47;100804.59;117290;1184;21854;-68
2021/08/22 06:48:55;;;;;;;14.10;10.20;;;;;;;28.83;48.32;100811.04;117411;1183;22648;-65
2021/08/22 06:51:23;;;;;;;11.40;8.70;;;;;;;29.05;47.97;100813.84;117407;1185;21855;-67
2021/08/22 06:53:52;;;;;;;11.20;7.70;;;;;;;29.29;47.30;100817.66;117385;1183;21916;-69
2021/08/22 06:56:20;;;;;;;33.00;15.20;;;;;;;29.53;46.68;100817.31;117418;1185;21860;-68
2021/08/22 06:58:49;;;;;;;32.80;16.90;;;;;;;29.71;46.04;100815.21;117370;1182;22727;-66
2021/08/22 07:01:17;;;;;;;13.20;9.80;;;;;;;29.83;45.58;100812.20;117410;1186;21851;-67
2021/08/22 07:03:46;;;;;;;10.90;8.80;;;;;;;30.03;45.10;100813.73;117385;1183;23654;-71
2021/08/22 07:06:15;;;;;;;14.30;8.30;;;;;;;30.20;44.43;100810.04;117406;1184;22942;-66
2021/08/22 07:08:43;;;;;;;12.40;8.00;;;;;;;30.32;44.02;100813.21;117463;1186;21889;-65
2021/08/22 07:11:12;;;;;;;11.70;8.10;;;;;;;30.42;43.95;100813.91;117411;1184;21855;-64
2021/08/22 07:13:40;;;;;;;14.10;7.50;;;;;;;30.56;43.68;100812.52;117414;1183;23429;-69
2021/08/22 07:16:08;;;;;;;9.10;7.60;;;;;;;30.65;43.14;100813.87;117375;1183;23145;-70
2021/08/22 07:18:37;;;;;;;8.90;6.80;;;;;;;30.81;42.84;100812.29;117437;1182;22019;-70
2021/08/22 07:21:07;;;;;;;8.40;6.80;;;;;;;31.04;42.54;100810.56;117462;1185;22898;-62
2021/08/22 07:23:35;;;;;;;11.00;6.60;;;;;;;31.31;42.22;100813.71;117439;1183;21864;-66
2021/08/22 07:26:03;;;;;;;8.90;7.10;;;;;;;31.54;41.60;100817.01;117466;1182;21861;-68
2021/08/22 07:28:31;;;;;;;10.80;6.00;;;;;;;31.59;41.53;100816.70;117502;1188;21845;-64
2021/08/22 07:31:04;;;;;;;7.90;6.00;;;;;;;31.72;40.96;100817.15;117414;1186;22979;-62
2021/08/22 07:33:33;;;;;;;6.90;5.90;;;;;;;31.89;40.52;100819.33;117403;1185;23456;-64
2021/08/22 07:36:02;;;;;;;7.70;5.90;;;;;;;32.18;40.34;100821.77;117433;1182;22820;-65
2021/08/22 07:38:30;;;;;;;8.00;6.10;;;;;;;32.60;39.86;100823.56;117465;1184;21858;-67
2021/08/22 07:40:58;;;;;;;7.30;5.50;;;;;;;32.79;39.45;100821.48;117474;1184;21868;-68
2021/08/22 07:43:27;;;;;;;7.60;5.60;;;;;;;32.82;38.72;100823.19;117464;1185;23535;-67
2021/08/22 07:45:55;;;;;;;7.30;6.00;;;;;;;32.85;38.29;100825.14;117446;1185;21886;-66
2021/08/22 07:48:23;;;;;;;7.80;6.60;;;;;;;32.91;37.69;100825.20;117402;1185;21855;-67
2021/08/22 07:50:52;;;;;;;6.80;5.30;;;;;;;33.01;37.48;100826.92;117369;1185;23533;-66
2021/08/22 07:53:20;;;;;;;6.40;5.30;;;;;;;33.19;37.58;100828.80;117397;1183;21854;-66
2021/08/22 07:55:48;;;;;;;9.60;5.20;;;;;;;33.33;36.62;100828.58;117378;1185;21864;-68
2021/08/22 07:58:16;;;;;;;11.30;5.60;;;;;;;33.50;36.43;100826.39;117376;1184;21972;-66
2021/08/22 08:00:44;;;;;;;7.00;5.50;;;;;;;33.73;36.15;100824.23;117331;1185;21846;-65
2021/08/22 08:03:12;;;;;;;9.00;5.30;;;;;;;33.88;35.90;100823.23;117438;1181;24147;-68
2021/08/22 08:05:41;;;;;;;7.50;4.70;;;;;;;34.06;35.88;100821.56;117343;1185;23521;-67
2021/08/22 08:08:29;;;;;;;10.00;5.50;;;;;;;34.22;35.72;100818.24;117274;1186;21854;-69
2021/08/22 08:10:58;;;;;;;5.90;4.80;;;;;;;34.28;35.20;100812.70;117437;1182;24217;-68
2021/08/22 08:13:26;;;;;;;5.60;4.40;;;;;;;34.47;34.38;100810.70;117407;1186;21904;-68
2021/08/22 08:15:54;;;;;;;6.00;4.90;;;;;;;34.69;34.17;100811.38;117427;1186;21864;-65
2021/08/22 08:18:23;;;;;;;7.90;4.50;;;;;;;34.83;33.91;100810.28;117462;1182;22924;-69
2021/08/22 08:20:51;;;;;;;4.90;3.90;;;;;;;34.93;33.74;100812.67;117480;1186;21999;-67
2021/08/22 08:23:19;;;;;;;5.60;4.40;;;;;;;34.94;33.17;100809.46;117424;1182;21845;-68
2021/08/22 08:25:47;;;;;;;6.10;4.60;;;;;;;35.02;33.46;100807.17;117475;1185;23560;-69
2021/08/22 08:28:19;;;;;;;5.60;4.40;;;;;;;35.27;33.17;100801.45;117404;1185;21937;-67
2021/08/22 08:30:48;;;;;;;10.70;4.40;;;;;;;35.62;32.68;100801.19;117341;1186;21858;-67
2021/08/22 08:33:16;;;;;;;10.40;4.90;;;;;;;35.91;31.94;100798.02;117313;1185;21855;-66
2021/08/22 08:35:44;;;;;;;7.70;4.50;;;;;;;35.94;32.19;100798.35;117415;1185;21868;-66
2021/08/22 08:38:13;;;;;;;6.00;4.10;;;;;;;35.93;31.59;100801.09;117398;1186;21855;-70
2021/08/22 08:40:42;;;;;;;5.00;3.90;;;;;;;35.99;31.17;100804.28;117512;1176;21863;-67
2021/08/22 08:43:10;;;;;;;7.10;5.10;;;;;;;36.06;31.15;100809.80;117378;1176;21854;-70
2021/08/22 08:45:57;;;;;;;5.30;4.10;;;;;;;36.21;30.83;100810.71;117459;1185;21845;-67
2021/08/22 08:48:55;;;;;;;5.50;3.90;;;;;;;36.26;30.88;100806.64;117390;1183;23525;-68
2021/08/22 08:51:26;;;;;;;5.40;4.40;;;;;;;36.42;30.69;100805.71;117286;1186;21992;-70
2021/08/22 08:54:35;;;;;;;11.10;4.90;;;;;;;36.56;30.16;100800.30;117440;1185;21855;-67
2021/08/22 08:57:05;;;;;;;8.20;4.40;;;;;;;36.51;30.66;100800.99;117440;1176;21859;-68
2021/08/22 08:59:36;;;;;;;4.80;3.60;;;;;;;36.76;30.53;100803.33;117358;1188;21862;-68
2021/08/22 09:02:05;;;;;;;4.80;3.70;;;;;;;37.03;30.55;100802.34;117437;1189;21857;-63
2021/08/22 09:04:35;;;;;;;4.10;3.30;;;;;;;37.25;30.02;100802.11;117333;1185;21855;-67
2021/08/22 09:07:52;;;;;;;4.40;3.70;;;;;;;37.32;29.35;100804.02;117365;1185;23659;-66
2021/08/22 09:10:48;;;;;;;3.90;2.80;;;;;;;37.50;28.89;100802.94;117478;1185;22956;-63
2021/08/22 09:13:45;;;;;;;5.80;3.40;;;;;;;37.82;28.11;100798.40;117350;1186;23001;-64
2021/08/22 09:16:50;;;;;;;6.30;4.30;;;;;;;38.00;27.59;100801.72;117415;1185;22818;-69
2021/08/22 09:19:58;;;;;;;4.20;3.40;;;;;;;37.89;27.46;100800.80;117393;1185;23423;-67
2021/08/22 09:23:23;;;;;;;4.00;3.20;;;;;;;37.89;27.69;100799.14;117327;1185;23650;-67
2021/08/22 09:26:38;;;;;;;4.60;3.30;;;;;;;37.95;28.10;100801.70;116940;1187;21870;-68
2021/08/22 09:29:27;;;;;;;4.70;3.40;;;;;;;38.07;27.54;100803.04;116938;1184;21982;-69
2021/08/22 09:32:33;;;;;;;5.90;4.40;;;;;;;38.09;26.91;100803.66;117292;1189;21879;-69
2021/08/22 09:35:16;;;;;;;5.00;3.40;;;;;;;38.10;26.70;100797.50;117384;1183;21859;-69
2021/08/22 09:38:21;;;;;;;4.30;3.30;;;;;;;38.11;26.42;100796.68;117427;1183;21845;-65
2021/08/22 09:41:34;;;;;;;3.90;3.10;;;;;;;38.13;26.07;100795.00;117399;1181;21857;-71
2021/08/22 09:44:35;;;;;;;5.50;3.30;;;;;;;38.15;26.07;100788.30;117373;1185;23456;-69
2021/08/22 09:47:09;;;;;;;7.20;2.80;;;;;;;38.22;26.14;100788.91;117414;1183;22718;-74
2021/08/22 09:50:14;;;;;;;6.50;3.10;;;;;;;38.36;25.69;100783.52;117378;1182;21888;-70
2021/08/22 09:53:20;;;;;;;4.20;3.00;;;;;;;38.31;25.74;100789.20;119449;1185;21830;-69
2021/08/22 09:56:26;;;;;;;7.10;3.30;;;;;;;38.34;26.25;100791.21;117460;1185;22619;-70
2021/08/22 09:59:02;;;;;;;7.70;3.60;;;;;;;38.37;25.86;100791.47;117416;1183;23063;-69
2021/08/22 10:01:40;;;;;;;6.60;3.70;;;;;;;38.35;25.86;100786.91;117580;1182;23571;-69
2021/08/22 10:04:46;;;;;;;5.20;3.50;;;;;;;38.40;26.08;100790.20;117479;1186;21841;-69
2021/08/22 10:07:21;;;;;;;5.50;2.90;;;;;;;38.51;25.67;100790.11;117451;1186;21845;-69
2021/08/22 10:10:31;;;;;;;5.10;3.00;;;;;;;38.56;25.35;100786.54;117340;1185;23423;-71
2021/08/22 10:12:59;;;;;;;3.20;2.60;;;;;;;38.65;25.59;100789.95;117045;1186;21858;-70
2021/08/22 10:15:28;;;;;;;4.40;2.70;;;;;;;38.83;25.55;100789.17;117058;1185;21854;-65
2021/08/22 10:17:56;;;;;;;5.20;3.00;;;;;;;39.01;25.35;100790.28;117136;1186;21870;-67
2021/08/22 10:20:53;;;;;;;3.90;2.60;;;;;;;38.98;24.93;100788.98;117417;1184;21848;-68
2021/08/22 10:23:38;;;;;;;5.80;2.90;;;;;;;39.18;24.75;100787.13;117424;1186;21867;-69
2021/08/22 10:26:07;;;;;;;5.50;2.90;;;;;;;39.25;24.69;100786.39;117460;1185;22880;-70
2021/08/22 10:28:54;;;;;;;4.00;2.80;;;;;;;39.23;24.39;100781.16;117444;1182;21858;-68
2021/08/22 10:31:58;;;;;;;4.40;2.80;;;;;;;39.18;24.15;100780.35;117357;1185;21848;-66
2021/08/22 10:34:27;;;;;;;5.30;2.60;;;;;;;39.14;24.00;100778.84;117426;1185;23617;-67
2021/08/22 10:36:56;;;;;;;10.20;3.70;;;;;;;39.05;23.60;100782.50;117436;1182;23633;-68
2021/08/22 10:39:27;;;;;;;3.90;2.80;;;;;;;38.79;23.76;100786.37;117386;1186;22651;-68
2021/08/22 10:42:00;;;;;;;3.90;2.70;;;;;;;38.57;24.20;100784.52;117396;1184;23310;-65
2021/08/22 10:44:34;;;;;;;5.80;2.70;;;;;;;38.49;24.04;100781.18;117222;1188;21858;-67
2021/08/22 10:47:03;;;;;;;5.70;2.90;;;;;;;38.48;24.02;100782.05;117401;1185;21967;-66
2021/08/22 10:49:52;;;;;;;6.00;3.30;;;;;;;38.50;24.28;100780.51;117428;1182;23120;-66
2021/08/22 10:52:36;;;;;;;4.50;3.00;;;;;;;38.57;24.13;100779.29;117228;1189;21857;-72
2021/08/22 10:55:14;;;;;;;4.50;2.80;;;;;;;38.65;24.14;100778.40;117452;1185;24142;-71
2021/08/22 10:57:45;;;;;;;4.60;2.90;;;;;;;38.63;24.14;100774.48;117409;1182;24265;-72
2021/08/22 11:00:23;;;;;;;8.60;3.60;;;;;;;38.81;24.29;100773.90;117356;1185;22103;-66
2021/08/22 11:02:57;;;;;;;8.90;3.80;;;;;;;39.08;24.28;100769.86;117413;1185;21872;-70
2021/08/22 11:05:36;;;;;;;7.40;3.20;;;;;;;39.18;23.96;100768.25;117445;1185;21906;-72
2021/08/22 11:08:11;;;;;;;4.50;2.90;;;;;;;39.18;23.82;100768.45;117435;1180;23059;-65
2021/08/22 11:10:40;;;;;;;5.10;3.00;;;;;;;39.19;23.76;100765.94;117410;1180;21858;-68
2021/08/22 11:13:32;;;;;;;7.80;4.20;;;;;;;39.23;23.51;100762.06;117396;1186;22950;-65
2021/08/22 11:16:05;;;;;;;5.60;3.10;;;;;;;39.27;23.61;100765.08;117434;1185;22918;-70
2021/08/22 11:18:34;;;;;;;5.40;2.80;;;;;;;39.39;23.72;100767.20;117416;1185;21898;-71
2021/08/22 11:21:03;;;;;;;8.90;4.30;;;;;;;39.35;23.59;100767.39;117491;1186;21848;-73
2021/08/22 11:23:32;;;;;;;11.90;7.70;;;;;;;39.21;23.31;100765.44;117419;1183;21961;-75
2021/08/22 11:26:06;;;;;;;14.30;10.20;;;;;;;38.96;23.32;100765.86;117380;1185;23634;-73
2021/08/22 11:28:36;;;;;;;9.90;8.80;;;;;;;38.85;23.56;100763.84;117390;1185;21847;-70
2021/08/22 11:31:12;;;;;;;9.90;6.00;;;;;;;38.94;23.76;100762.15;117414;1182;22081;-73
2021/08/22 11:33:41;;;;;;;8.30;6.30;;;;;;;38.91;23.74;100756.88;117384;1186;21849;-68